sensor_id;sensor_type;location;lat;lon;timestamp;P1;durP1;ratioP1;P2;durP2;ratioP2
27003;SDS011;14546;47.590;19.022;2023-03-01T00:02:22;38.55;;;22.30;;
27003;SDS011;14546;47.590;19.022;2023-03-01T00:04:48;43.35;;;23.83;;
27003;SDS011;14546;47.590;19.022;2023-03-01T00:07:14;41.42;;;22.83;;
27003;SDS011;14546;47.590;19.022;2023-03-01T00:09:40;38.20;;;22.55;;
27003;SDS011;14546;47.590;19.022;2023-03-01T00:12:06;42.10;;;23.77;;
27003;SDS011;14546;47.590;19.022;2023-03-01T00:14:32;40.45;;;22.17;;
27003;SDS011;14546;47.590;19.022;2023-03-01T00:16:59;39.00;;;22.45;;
27003;SDS011;14546;47.590;19.022;2023-03-01T00:19:25;43.03;;;22.85;;
27003;SDS011;14546;47.590;19.022;2023-03-01T00:21:51;39.75;;;22.63;;
27003;SDS011;14546;47.590;19.022;2023-03-01T00:24:17;40.15;;;21.55;;
27003;SDS011;14546;47.590;19.022;2023-03-01T00:26:43;39.53;;;21.40;;
27003;SDS011;14546;47.590;19.022;2023-03-01T00:29:09;37.28;;;20.67;;
27003;SDS011;14546;47.590;19.022;2023-03-01T00:31:35;37.33;;;20.42;;
27003;SDS011;14546;47.590;19.022;2023-03-01T00:34:02;36.20;;;22.25;;
27003;SDS011;14546;47.590;19.022;2023-03-01T00:36:30;33.63;;;21.15;;
27003;SDS011;14546;47.590;19.022;2023-03-01T00:38:56;34.70;;;20.25;;
27003;SDS011;14546;47.590;19.022;2023-03-01T00:41:22;36.42;;;20.95;;
27003;SDS011;14546;47.590;19.022;2023-03-01T00:43:48;36.25;;;20.15;;
27003;SDS011;14546;47.590;19.022;2023-03-01T00:46:16;33.63;;;20.77;;
27003;SDS011;14546;47.590;19.022;2023-03-01T00:48:42;34.00;;;21.67;;
27003;SDS011;14546;47.590;19.022;2023-03-01T00:51:12;34.47;;;20.45;;
27003;SDS011;14546;47.590;19.022;2023-03-01T00:53:38;37.03;;;21.75;;
27003;SDS011;14546;47.590;19.022;2023-03-01T00:56:05;36.50;;;22.30;;
27003;SDS011;14546;47.590;19.022;2023-03-01T00:58:31;37.75;;;22.10;;
27003;SDS011;14546;47.590;19.022;2023-03-01T01:00:57;40.30;;;23.52;;
27003;SDS011;14546;47.590;19.022;2023-03-01T01:03:23;41.00;;;22.95;;
27003;SDS011;14546;47.590;19.022;2023-03-01T01:05:50;37.28;;;22.95;;
27003;SDS011;14546;47.590;19.022;2023-03-01T01:08:16;37.97;;;22.17;;
27003;SDS011;14546;47.590;19.022;2023-03-01T01:10:43;36.25;;;21.67;;
27003;SDS011;14546;47.590;19.022;2023-03-01T01:13:09;35.33;;;21.30;;
27003;SDS011;14546;47.590;19.022;2023-03-01T01:15:35;36.33;;;20.90;;
27003;SDS011;14546;47.590;19.022;2023-03-01T01:18:01;33.50;;;19.40;;
27003;SDS011;14546;47.590;19.022;2023-03-01T01:20:30;36.85;;;20.05;;
27003;SDS011;14546;47.590;19.022;2023-03-01T01:22:56;35.30;;;21.08;;
27003;SDS011;14546;47.590;19.022;2023-03-01T01:25:22;40.40;;;19.95;;
27003;SDS011;14546;47.590;19.022;2023-03-01T01:27:50;32.92;;;19.80;;
27003;SDS011;14546;47.590;19.022;2023-03-01T01:30:16;35.08;;;20.05;;
27003;SDS011;14546;47.590;19.022;2023-03-01T01:32:42;31.83;;;20.88;;
27003;SDS011;14546;47.590;19.022;2023-03-01T01:35:08;28.95;;;17.15;;
27003;SDS011;14546;47.590;19.022;2023-03-01T01:37:34;27.60;;;15.98;;
27003;SDS011;14546;47.590;19.022;2023-03-01T01:40:01;27.52;;;15.55;;
27003;SDS011;14546;47.590;19.022;2023-03-01T01:42:29;23.50;;;14.98;;
27003;SDS011;14546;47.590;19.022;2023-03-01T01:47:40;22.33;;;14.43;;
27003;SDS011;14546;47.590;19.022;2023-03-01T01:50:08;20.80;;;12.68;;
27003;SDS011;14546;47.590;19.022;2023-03-01T01:55:10;20.63;;;12.45;;
27003;SDS011;14546;47.590;19.022;2023-03-01T01:57:41;20.45;;;12.50;;
27003;SDS011;14546;47.590;19.022;2023-03-01T02:00:10;20.92;;;12.70;;
27003;SDS011;14546;47.590;19.022;2023-03-01T02:02:37;24.13;;;13.48;;
27003;SDS011;14546;47.590;19.022;2023-03-01T02:05:09;21.50;;;14.10;;
27003;SDS011;14546;47.590;19.022;2023-03-01T02:07:38;18.90;;;13.00;;
27003;SDS011;14546;47.590;19.022;2023-03-01T02:10:05;21.48;;;13.95;;
27003;SDS011;14546;47.590;19.022;2023-03-01T02:12:31;22.08;;;13.27;;
27003;SDS011;14546;47.590;19.022;2023-03-01T02:14:58;19.27;;;13.10;;
27003;SDS011;14546;47.590;19.022;2023-03-01T02:17:24;21.23;;;13.32;;
27003;SDS011;14546;47.590;19.022;2023-03-01T02:22:30;22.02;;;13.52;;
27003;SDS011;14546;47.590;19.022;2023-03-01T02:27:27;20.33;;;12.77;;
27003;SDS011;14546;47.590;19.022;2023-03-01T02:29:56;20.20;;;12.80;;
27003;SDS011;14546;47.590;19.022;2023-03-01T02:32:22;20.77;;;12.88;;
27003;SDS011;14546;47.590;19.022;2023-03-01T02:34:53;21.88;;;12.40;;
27003;SDS011;14546;47.590;19.022;2023-03-01T02:37:19;21.50;;;13.00;;
27003;SDS011;14546;47.590;19.022;2023-03-01T02:39:50;32.60;;;13.27;;
27003;SDS011;14546;47.590;19.022;2023-03-01T02:42:21;20.58;;;13.70;;
27003;SDS011;14546;47.590;19.022;2023-03-01T02:44:49;24.63;;;14.43;;
27003;SDS011;14546;47.590;19.022;2023-03-01T02:47:15;26.27;;;14.75;;
27003;SDS011;14546;47.590;19.022;2023-03-01T02:49:41;22.00;;;13.13;;
27003;SDS011;14546;47.590;19.022;2023-03-01T02:54:36;22.08;;;14.25;;
27003;SDS011;14546;47.590;19.022;2023-03-01T02:57:04;23.38;;;14.65;;
27003;SDS011;14546;47.590;19.022;2023-03-01T02:59:31;21.40;;;13.85;;
27003;SDS011;14546;47.590;19.022;2023-03-01T03:02:04;27.08;;;13.50;;
27003;SDS011;14546;47.590;19.022;2023-03-01T03:04:30;20.60;;;13.90;;
27003;SDS011;14546;47.590;19.022;2023-03-01T03:06:57;21.13;;;13.02;;
27003;SDS011;14546;47.590;19.022;2023-03-01T03:09:23;20.20;;;13.32;;
27003;SDS011;14546;47.590;19.022;2023-03-01T03:11:49;21.08;;;13.48;;
27003;SDS011;14546;47.590;19.022;2023-03-01T03:14:16;23.20;;;14.27;;
27003;SDS011;14546;47.590;19.022;2023-03-01T03:16:43;24.13;;;13.57;;
27003;SDS011;14546;47.590;19.022;2023-03-01T03:19:09;24.42;;;13.88;;
27003;SDS011;14546;47.590;19.022;2023-03-01T03:21:35;20.13;;;13.13;;
27003;SDS011;14546;47.590;19.022;2023-03-01T03:24:01;20.70;;;13.40;;
27003;SDS011;14546;47.590;19.022;2023-03-01T03:26:27;27.55;;;13.48;;
27003;SDS011;14546;47.590;19.022;2023-03-01T03:28:53;22.60;;;13.00;;
27003;SDS011;14546;47.590;19.022;2023-03-01T03:31:19;21.05;;;13.07;;
27003;SDS011;14546;47.590;19.022;2023-03-01T03:33:46;21.55;;;13.77;;
27003;SDS011;14546;47.590;19.022;2023-03-01T03:36:19;23.20;;;14.32;;
27003;SDS011;14546;47.590;19.022;2023-03-01T03:38:45;19.83;;;12.55;;
27003;SDS011;14546;47.590;19.022;2023-03-01T03:41:11;20.13;;;13.15;;
27003;SDS011;14546;47.590;19.022;2023-03-01T03:43:38;21.77;;;13.32;;
27003;SDS011;14546;47.590;19.022;2023-03-01T03:46:05;20.98;;;13.02;;
27003;SDS011;14546;47.590;19.022;2023-03-01T03:48:33;23.60;;;13.55;;
27003;SDS011;14546;47.590;19.022;2023-03-01T03:50:59;19.30;;;12.63;;
27003;SDS011;14546;47.590;19.022;2023-03-01T03:53:25;20.15;;;12.88;;
27003;SDS011;14546;47.590;19.022;2023-03-01T03:55:52;20.00;;;12.70;;
27003;SDS011;14546;47.590;19.022;2023-03-01T03:58:20;19.95;;;13.10;;
27003;SDS011;14546;47.590;19.022;2023-03-01T04:00:46;21.30;;;11.85;;
27003;SDS011;14546;47.590;19.022;2023-03-01T04:03:13;17.48;;;11.77;;
27003;SDS011;14546;47.590;19.022;2023-03-01T04:05:40;33.25;;;12.63;;
27003;SDS011;14546;47.590;19.022;2023-03-01T04:08:07;21.80;;;12.88;;
27003;SDS011;14546;47.590;19.022;2023-03-01T04:10:34;29.08;;;12.85;;
27003;SDS011;14546;47.590;19.022;2023-03-01T04:13:01;19.83;;;12.88;;
27003;SDS011;14546;47.590;19.022;2023-03-01T04:15:27;21.33;;;13.25;;
27003;SDS011;14546;47.590;19.022;2023-03-01T04:17:56;19.58;;;13.30;;
27003;SDS011;14546;47.590;19.022;2023-03-01T04:20:24;26.85;;;14.38;;
27003;SDS011;14546;47.590;19.022;2023-03-01T04:22:56;21.90;;;14.20;;
27003;SDS011;14546;47.590;19.022;2023-03-01T04:25:22;22.48;;;13.38;;
27003;SDS011;14546;47.590;19.022;2023-03-01T04:27:51;26.38;;;13.70;;
27003;SDS011;14546;47.590;19.022;2023-03-01T04:30:17;20.30;;;13.63;;
27003;SDS011;14546;47.590;19.022;2023-03-01T04:32:43;24.85;;;14.70;;
27003;SDS011;14546;47.590;19.022;2023-03-01T04:35:09;25.27;;;15.10;;
27003;SDS011;14546;47.590;19.022;2023-03-01T04:37:35;25.48;;;15.98;;
27003;SDS011;14546;47.590;19.022;2023-03-01T04:40:02;25.98;;;15.02;;
27003;SDS011;14546;47.590;19.022;2023-03-01T04:42:40;23.88;;;14.88;;
27003;SDS011;14546;47.590;19.022;2023-03-01T04:45:07;25.77;;;15.90;;
27003;SDS011;14546;47.590;19.022;2023-03-01T04:47:38;25.92;;;15.73;;
27003;SDS011;14546;47.590;19.022;2023-03-01T04:50:08;24.77;;;15.43;;
27003;SDS011;14546;47.590;19.022;2023-03-01T04:52:34;25.00;;;16.08;;
27003;SDS011;14546;47.590;19.022;2023-03-01T04:55:01;23.20;;;15.40;;
27003;SDS011;14546;47.590;19.022;2023-03-01T04:57:28;27.83;;;16.02;;
27003;SDS011;14546;47.590;19.022;2023-03-01T04:59:54;25.48;;;15.27;;
27003;SDS011;14546;47.590;19.022;2023-03-01T05:02:23;23.80;;;15.05;;
27003;SDS011;14546;47.590;19.022;2023-03-01T05:04:49;24.52;;;15.68;;
27003;SDS011;14546;47.590;19.022;2023-03-01T05:07:15;28.85;;;15.45;;
27003;SDS011;14546;47.590;19.022;2023-03-01T05:09:47;25.23;;;15.20;;
27003;SDS011;14546;47.590;19.022;2023-03-01T05:12:13;25.20;;;15.50;;
27003;SDS011;14546;47.590;19.022;2023-03-01T05:14:39;23.00;;;15.05;;
27003;SDS011;14546;47.590;19.022;2023-03-01T05:17:05;24.83;;;15.25;;
27003;SDS011;14546;47.590;19.022;2023-03-01T05:19:32;26.15;;;15.52;;
27003;SDS011;14546;47.590;19.022;2023-03-01T05:21:58;25.60;;;14.95;;
27003;SDS011;14546;47.590;19.022;2023-03-01T05:24:29;21.38;;;14.40;;
27003;SDS011;14546;47.590;19.022;2023-03-01T05:26:55;24.23;;;14.43;;
27003;SDS011;14546;47.590;19.022;2023-03-01T05:29:22;22.27;;;14.82;;
27003;SDS011;14546;47.590;19.022;2023-03-01T05:31:52;24.75;;;15.90;;
27003;SDS011;14546;47.590;19.022;2023-03-01T05:34:19;22.50;;;14.43;;
27003;SDS011;14546;47.590;19.022;2023-03-01T05:36:47;23.27;;;14.75;;
27003;SDS011;14546;47.590;19.022;2023-03-01T05:39:13;24.83;;;14.85;;
27003;SDS011;14546;47.590;19.022;2023-03-01T05:41:39;26.55;;;15.85;;
27003;SDS011;14546;47.590;19.022;2023-03-01T05:44:06;24.60;;;16.13;;
27003;SDS011;14546;47.590;19.022;2023-03-01T05:46:32;23.13;;;14.23;;
27003;SDS011;14546;47.590;19.022;2023-03-01T05:48:58;25.92;;;15.50;;
27003;SDS011;14546;47.590;19.022;2023-03-01T05:51:25;25.92;;;15.95;;
27003;SDS011;14546;47.590;19.022;2023-03-01T05:53:51;25.77;;;15.73;;
27003;SDS011;14546;47.590;19.022;2023-03-01T05:56:18;25.85;;;15.40;;
27003;SDS011;14546;47.590;19.022;2023-03-01T05:58:45;26.02;;;17.17;;
27003;SDS011;14546;47.590;19.022;2023-03-01T06:01:11;31.13;;;16.40;;
27003;SDS011;14546;47.590;19.022;2023-03-01T06:03:38;27.83;;;16.88;;
27003;SDS011;14546;47.590;19.022;2023-03-01T06:06:04;27.67;;;16.38;;
27003;SDS011;14546;47.590;19.022;2023-03-01T06:08:30;27.55;;;16.13;;
27003;SDS011;14546;47.590;19.022;2023-03-01T06:10:56;28.63;;;16.45;;
27003;SDS011;14546;47.590;19.022;2023-03-01T06:13:22;30.80;;;16.13;;
27003;SDS011;14546;47.590;19.022;2023-03-01T06:15:49;29.08;;;15.77;;
27003;SDS011;14546;47.590;19.022;2023-03-01T06:18:15;25.73;;;15.77;;
27003;SDS011;14546;47.590;19.022;2023-03-01T06:20:41;28.63;;;17.35;;
27003;SDS011;14546;47.590;19.022;2023-03-01T06:23:07;25.98;;;15.82;;
27003;SDS011;14546;47.590;19.022;2023-03-01T06:25:33;25.88;;;16.70;;
27003;SDS011;14546;47.590;19.022;2023-03-01T06:27:59;26.08;;;15.68;;
27003;SDS011;14546;47.590;19.022;2023-03-01T06:30:25;26.75;;;15.27;;
27003;SDS011;14546;47.590;19.022;2023-03-01T06:32:52;25.92;;;15.57;;
27003;SDS011;14546;47.590;19.022;2023-03-01T06:37:54;31.27;;;15.77;;
27003;SDS011;14546;47.590;19.022;2023-03-01T06:40:21;30.08;;;16.40;;
27003;SDS011;14546;47.590;19.022;2023-03-01T06:42:49;27.95;;;16.23;;
27003;SDS011;14546;47.590;19.022;2023-03-01T06:45:15;28.70;;;15.93;;
27003;SDS011;14546;47.590;19.022;2023-03-01T06:47:41;26.15;;;16.27;;
27003;SDS011;14546;47.590;19.022;2023-03-01T06:50:08;30.88;;;16.65;;
27003;SDS011;14546;47.590;19.022;2023-03-01T06:52:34;27.02;;;16.13;;
27003;SDS011;14546;47.590;19.022;2023-03-01T06:55:00;32.80;;;15.85;;
27003;SDS011;14546;47.590;19.022;2023-03-01T06:57:26;25.77;;;16.27;;
27003;SDS011;14546;47.590;19.022;2023-03-01T06:59:52;26.92;;;16.15;;
27003;SDS011;14546;47.590;19.022;2023-03-01T07:02:18;44.17;;;16.60;;
27003;SDS011;14546;47.590;19.022;2023-03-01T07:04:44;30.90;;;16.42;;
27003;SDS011;14546;47.590;19.022;2023-03-01T07:07:10;32.10;;;16.77;;
27003;SDS011;14546;47.590;19.022;2023-03-01T07:09:36;28.08;;;16.42;;
27003;SDS011;14546;47.590;19.022;2023-03-01T07:12:03;26.98;;;16.52;;
27003;SDS011;14546;47.590;19.022;2023-03-01T07:14:29;26.15;;;16.30;;
27003;SDS011;14546;47.590;19.022;2023-03-01T07:16:55;36.97;;;17.42;;
27003;SDS011;14546;47.590;19.022;2023-03-01T07:19:21;27.88;;;16.85;;
27003;SDS011;14546;47.590;19.022;2023-03-01T07:21:48;26.98;;;17.27;;
27003;SDS011;14546;47.590;19.022;2023-03-01T07:24:14;26.77;;;16.27;;
27003;SDS011;14546;47.590;19.022;2023-03-01T07:26:40;28.63;;;16.60;;
27003;SDS011;14546;47.590;19.022;2023-03-01T07:29:07;29.42;;;16.13;;
27003;SDS011;14546;47.590;19.022;2023-03-01T07:31:33;30.33;;;17.15;;
27003;SDS011;14546;47.590;19.022;2023-03-01T07:33:59;26.42;;;16.85;;
27003;SDS011;14546;47.590;19.022;2023-03-01T07:36:26;28.70;;;16.60;;
27003;SDS011;14546;47.590;19.022;2023-03-01T07:38:52;25.15;;;15.95;;
27003;SDS011;14546;47.590;19.022;2023-03-01T07:41:20;30.48;;;15.18;;
27003;SDS011;14546;47.590;19.022;2023-03-01T07:43:46;23.95;;;14.65;;
27003;SDS011;14546;47.590;19.022;2023-03-01T07:46:12;29.05;;;14.27;;
27003;SDS011;14546;47.590;19.022;2023-03-01T07:48:38;21.70;;;13.80;;
27003;SDS011;14546;47.590;19.022;2023-03-01T07:51:05;23.15;;;15.07;;
27003;SDS011;14546;47.590;19.022;2023-03-01T07:53:31;21.35;;;13.55;;
27003;SDS011;14546;47.590;19.022;2023-03-01T07:56:11;26.73;;;14.10;;
27003;SDS011;14546;47.590;19.022;2023-03-01T07:58:39;27.15;;;15.05;;
27003;SDS011;14546;47.590;19.022;2023-03-01T08:01:06;20.10;;;14.05;;
27003;SDS011;14546;47.590;19.022;2023-03-01T08:03:32;25.95;;;14.35;;
27003;SDS011;14546;47.590;19.022;2023-03-01T08:05:59;23.05;;;13.73;;
27003;SDS011;14546;47.590;19.022;2023-03-01T08:08:25;23.13;;;15.35;;
27003;SDS011;14546;47.590;19.022;2023-03-01T08:10:51;22.13;;;13.88;;
27003;SDS011;14546;47.590;19.022;2023-03-01T08:13:17;20.50;;;12.60;;
27003;SDS011;14546;47.590;19.022;2023-03-01T08:15:47;21.70;;;12.68;;
27003;SDS011;14546;47.590;19.022;2023-03-01T08:18:14;22.63;;;12.73;;
27003;SDS011;14546;47.590;19.022;2023-03-01T08:20:40;22.35;;;12.95;;
27003;SDS011;14546;47.590;19.022;2023-03-01T08:23:06;20.42;;;12.90;;
27003;SDS011;14546;47.590;19.022;2023-03-01T08:25:32;23.98;;;13.57;;
27003;SDS011;14546;47.590;19.022;2023-03-01T08:27:58;20.52;;;13.48;;
27003;SDS011;14546;47.590;19.022;2023-03-01T08:30:24;19.63;;;12.20;;
27003;SDS011;14546;47.590;19.022;2023-03-01T08:32:50;15.80;;;11.25;;
27003;SDS011;14546;47.590;19.022;2023-03-01T08:35:16;16.13;;;9.93;;
27003;SDS011;14546;47.590;19.022;2023-03-01T08:37:42;17.50;;;11.85;;
27003;SDS011;14546;47.590;19.022;2023-03-01T08:40:08;19.98;;;12.75;;
27003;SDS011;14546;47.590;19.022;2023-03-01T08:42:35;18.83;;;11.52;;
27003;SDS011;14546;47.590;19.022;2023-03-01T08:45:01;21.80;;;12.63;;
27003;SDS011;14546;47.590;19.022;2023-03-01T08:47:27;19.30;;;10.05;;
27003;SDS011;14546;47.590;19.022;2023-03-01T08:49:54;13.00;;;8.75;;
27003;SDS011;14546;47.590;19.022;2023-03-01T08:52:20;17.25;;;10.50;;
27003;SDS011;14546;47.590;19.022;2023-03-01T08:54:48;15.40;;;9.77;;
27003;SDS011;14546;47.590;19.022;2023-03-01T08:57:15;17.08;;;11.30;;
27003;SDS011;14546;47.590;19.022;2023-03-01T08:59:41;16.88;;;10.35;;
27003;SDS011;14546;47.590;19.022;2023-03-01T09:02:12;16.23;;;10.38;;
27003;SDS011;14546;47.590;19.022;2023-03-01T09:04:39;15.30;;;9.70;;
27003;SDS011;14546;47.590;19.022;2023-03-01T09:07:05;17.58;;;10.63;;
27003;SDS011;14546;47.590;19.022;2023-03-01T09:09:31;12.77;;;9.15;;
27003;SDS011;14546;47.590;19.022;2023-03-01T09:11:57;19.63;;;10.13;;
27003;SDS011;14546;47.590;19.022;2023-03-01T09:14:23;18.65;;;9.73;;
27003;SDS011;14546;47.590;19.022;2023-03-01T09:16:50;14.98;;;9.55;;
27003;SDS011;14546;47.590;19.022;2023-03-01T09:19:16;17.02;;;10.65;;
27003;SDS011;14546;47.590;19.022;2023-03-01T09:21:42;15.95;;;10.13;;
27003;SDS011;14546;47.590;19.022;2023-03-01T09:24:18;19.95;;;10.48;;
27003;SDS011;14546;47.590;19.022;2023-03-01T09:26:44;16.15;;;10.55;;
27003;SDS011;14546;47.590;19.022;2023-03-01T09:29:13;16.85;;;11.25;;
27003;SDS011;14546;47.590;19.022;2023-03-01T09:31:39;12.68;;;10.13;;
27003;SDS011;14546;47.590;19.022;2023-03-01T09:34:06;18.10;;;10.75;;
27003;SDS011;14546;47.590;19.022;2023-03-01T09:36:32;17.55;;;11.00;;
27003;SDS011;14546;47.590;19.022;2023-03-01T09:38:59;19.40;;;11.73;;
27003;SDS011;14546;47.590;19.022;2023-03-01T09:44:00;17.52;;;10.50;;
27003;SDS011;14546;47.590;19.022;2023-03-01T09:46:28;19.35;;;11.23;;
27003;SDS011;14546;47.590;19.022;2023-03-01T09:48:57;19.25;;;11.40;;
27003;SDS011;14546;47.590;19.022;2023-03-01T09:51:29;15.88;;;11.25;;
27003;SDS011;14546;47.590;19.022;2023-03-01T09:53:56;16.88;;;11.63;;
27003;SDS011;14546;47.590;19.022;2023-03-01T09:56:31;18.27;;;11.73;;
27003;SDS011;14546;47.590;19.022;2023-03-01T09:59:07;16.23;;;11.57;;
27003;SDS011;14546;47.590;19.022;2023-03-01T10:06:30;16.63;;;11.05;;
27003;SDS011;14546;47.590;19.022;2023-03-01T10:08:57;23.67;;;11.05;;
27003;SDS011;14546;47.590;19.022;2023-03-01T10:11:26;16.42;;;11.00;;
27003;SDS011;14546;47.590;19.022;2023-03-01T10:16:43;17.90;;;11.20;;
27003;SDS011;14546;47.590;19.022;2023-03-01T10:19:14;19.52;;;11.63;;
27003;SDS011;14546;47.590;19.022;2023-03-01T10:21:44;18.42;;;11.38;;
27003;SDS011;14546;47.590;19.022;2023-03-01T10:24:12;17.05;;;12.18;;
27003;SDS011;14546;47.590;19.022;2023-03-01T10:27:12;16.98;;;11.57;;
27003;SDS011;14546;47.590;19.022;2023-03-01T10:29:34;16.73;;;11.50;;
27003;SDS011;14546;47.590;19.022;2023-03-01T10:32:03;14.00;;;11.23;;
27003;SDS011;14546;47.590;19.022;2023-03-01T10:34:32;19.85;;;11.30;;
27003;SDS011;14546;47.590;19.022;2023-03-01T10:39:34;21.75;;;11.57;;
27003;SDS011;14546;47.590;19.022;2023-03-01T10:42:02;19.98;;;11.80;;
27003;SDS011;14546;47.590;19.022;2023-03-01T10:47:00;16.95;;;11.57;;
27003;SDS011;14546;47.590;19.022;2023-03-01T10:49:26;15.32;;;10.52;;
27003;SDS011;14546;47.590;19.022;2023-03-01T10:51:53;21.95;;;11.55;;
27003;SDS011;14546;47.590;19.022;2023-03-01T10:54:20;15.77;;;11.88;;
27003;SDS011;14546;47.590;19.022;2023-03-01T10:56:57;20.90;;;11.90;;
27003;SDS011;14546;47.590;19.022;2023-03-01T10:59:34;20.92;;;11.82;;
27003;SDS011;14546;47.590;19.022;2023-03-01T11:04:35;15.13;;;11.32;;
27003;SDS011;14546;47.590;19.022;2023-03-01T11:07:01;17.45;;;12.00;;
27003;SDS011;14546;47.590;19.022;2023-03-01T11:09:32;19.00;;;12.02;;
27003;SDS011;14546;47.590;19.022;2023-03-01T11:12:03;16.58;;;11.55;;
27003;SDS011;14546;47.590;19.022;2023-03-01T11:14:31;18.33;;;11.27;;
27003;SDS011;14546;47.590;19.022;2023-03-01T11:17:11;15.75;;;11.25;;
27003;SDS011;14546;47.590;19.022;2023-03-01T11:19:38;16.95;;;10.77;;
27003;SDS011;14546;47.590;19.022;2023-03-01T11:22:11;18.08;;;11.35;;
27003;SDS011;14546;47.590;19.022;2023-03-01T11:32:19;15.07;;;9.63;;
27003;SDS011;14546;47.590;19.022;2023-03-01T11:34:57;16.55;;;10.55;;
27003;SDS011;14546;47.590;19.022;2023-03-01T11:40:40;20.65;;;10.15;;
27003;SDS011;14546;47.590;19.022;2023-03-01T11:51:17;12.18;;;9.43;;
27003;SDS011;14546;47.590;19.022;2023-03-01T12:01:52;15.35;;;9.45;;
27003;SDS011;14546;47.590;19.022;2023-03-01T12:06:57;19.23;;;8.68;;
27003;SDS011;14546;47.590;19.022;2023-03-01T12:12:25;15.30;;;8.40;;
27003;SDS011;14546;47.590;19.022;2023-03-01T12:15:02;17.83;;;9.25;;
27003;SDS011;14546;47.590;19.022;2023-03-01T12:20:11;11.70;;;8.70;;
27003;SDS011;14546;47.590;19.022;2023-03-01T12:25:38;14.63;;;7.95;;
27003;SDS011;14546;47.590;19.022;2023-03-01T12:31:12;12.43;;;7.72;;
27003;SDS011;14546;47.590;19.022;2023-03-01T12:38:40;11.15;;;7.40;;
27003;SDS011;14546;47.590;19.022;2023-03-01T12:49:19;12.93;;;6.18;;
27003;SDS011;14546;47.590;19.022;2023-03-01T12:52:02;9.35;;;5.90;;
27003;SDS011;14546;47.590;19.022;2023-03-01T12:54:33;15.80;;;5.53;;
27003;SDS011;14546;47.590;19.022;2023-03-01T12:59:40;11.55;;;6.18;;
27003;SDS011;14546;47.590;19.022;2023-03-01T13:02:17;7.72;;;5.85;;
27003;SDS011;14546;47.590;19.022;2023-03-01T13:09:53;15.35;;;6.22;;
27003;SDS011;14546;47.590;19.022;2023-03-01T13:15:13;8.02;;;5.60;;
27003;SDS011;14546;47.590;19.022;2023-03-01T13:20:59;8.75;;;6.47;;
27003;SDS011;14546;47.590;19.022;2023-03-01T13:23:26;14.30;;;5.90;;
27003;SDS011;14546;47.590;19.022;2023-03-01T13:30:57;10.63;;;5.90;;
27003;SDS011;14546;47.590;19.022;2023-03-01T13:35:58;9.98;;;5.32;;
27003;SDS011;14546;47.590;19.022;2023-03-01T13:38:44;10.10;;;5.10;;
27003;SDS011;14546;47.590;19.022;2023-03-01T13:41:11;11.15;;;5.55;;
27003;SDS011;14546;47.590;19.022;2023-03-01T13:43:38;9.05;;;5.50;;
27003;SDS011;14546;47.590;19.022;2023-03-01T13:48:36;7.28;;;5.53;;
27003;SDS011;14546;47.590;19.022;2023-03-01T13:51:09;7.63;;;5.05;;
27003;SDS011;14546;47.590;19.022;2023-03-01T13:53:39;9.27;;;4.88;;
27003;SDS011;14546;47.590;19.022;2023-03-01T13:56:10;10.93;;;5.25;;
27003;SDS011;14546;47.590;19.022;2023-03-01T13:58:48;10.88;;;4.80;;
27003;SDS011;14546;47.590;19.022;2023-03-01T14:01:20;6.25;;;4.80;;
27003;SDS011;14546;47.590;19.022;2023-03-01T14:03:47;10.45;;;5.40;;
27003;SDS011;14546;47.590;19.022;2023-03-01T14:06:17;6.40;;;5.07;;
27003;SDS011;14546;47.590;19.022;2023-03-01T14:08:49;8.75;;;4.38;;
27003;SDS011;14546;47.590;19.022;2023-03-01T14:14:14;6.55;;;5.15;;
27003;SDS011;14546;47.590;19.022;2023-03-01T14:21:49;15.50;;;5.55;;
27003;SDS011;14546;47.590;19.022;2023-03-01T14:24:27;9.70;;;5.50;;
27003;SDS011;14546;47.590;19.022;2023-03-01T14:26:53;9.30;;;4.93;;
27003;SDS011;14546;47.590;19.022;2023-03-01T14:29:38;11.43;;;5.50;;
27003;SDS011;14546;47.590;19.022;2023-03-01T14:34:36;11.75;;;5.03;;
27003;SDS011;14546;47.590;19.022;2023-03-01T14:37:27;12.80;;;5.20;;
27003;SDS011;14546;47.590;19.022;2023-03-01T14:39:57;11.02;;;5.18;;
27003;SDS011;14546;47.590;19.022;2023-03-01T14:42:24;10.50;;;5.28;;
27003;SDS011;14546;47.590;19.022;2023-03-01T14:44:52;9.70;;;5.35;;
27003;SDS011;14546;47.590;19.022;2023-03-01T14:47:37;9.90;;;5.75;;
27003;SDS011;14546;47.590;19.022;2023-03-01T14:52:37;11.25;;;5.45;;
27003;SDS011;14546;47.590;19.022;2023-03-01T14:55:09;12.38;;;5.57;;
27003;SDS011;14546;47.590;19.022;2023-03-01T14:57:42;14.82;;;5.88;;
27003;SDS011;14546;47.590;19.022;2023-03-01T15:00:10;14.95;;;5.78;;
27003;SDS011;14546;47.590;19.022;2023-03-01T15:05:08;9.32;;;5.70;;
27003;SDS011;14546;47.590;19.022;2023-03-01T15:07:40;11.20;;;5.70;;
27003;SDS011;14546;47.590;19.022;2023-03-01T15:10:12;9.70;;;5.43;;
27003;SDS011;14546;47.590;19.022;2023-03-01T15:12:40;10.88;;;7.07;;
27003;SDS011;14546;47.590;19.022;2023-03-01T15:17:58;9.05;;;5.22;;
27003;SDS011;14546;47.590;19.022;2023-03-01T15:20:26;14.98;;;5.95;;
27003;SDS011;14546;47.590;19.022;2023-03-01T15:22:57;7.15;;;5.03;;
27003;SDS011;14546;47.590;19.022;2023-03-01T15:25:27;11.70;;;5.97;;
27003;SDS011;14546;47.590;19.022;2023-03-01T15:27:53;11.05;;;5.60;;
27003;SDS011;14546;47.590;19.022;2023-03-01T15:30:25;15.20;;;5.80;;
27003;SDS011;14546;47.590;19.022;2023-03-01T15:35:45;13.02;;;4.68;;
27003;SDS011;14546;47.590;19.022;2023-03-01T15:40:59;8.68;;;4.97;;
27003;SDS011;14546;47.590;19.022;2023-03-01T15:43:42;7.25;;;4.60;;
27003;SDS011;14546;47.590;19.022;2023-03-01T15:46:27;8.60;;;4.68;;
27003;SDS011;14546;47.590;19.022;2023-03-01T15:49:37;10.77;;;5.65;;
27003;SDS011;14546;47.590;19.022;2023-03-01T15:51:48;11.13;;;5.10;;
27003;SDS011;14546;47.590;19.022;2023-03-01T15:54:21;9.95;;;5.38;;
27003;SDS011;14546;47.590;19.022;2023-03-01T15:56:47;8.43;;;5.80;;
27003;SDS011;14546;47.590;19.022;2023-03-01T15:59:13;9.60;;;5.00;;
27003;SDS011;14546;47.590;19.022;2023-03-01T16:01:42;10.65;;;5.30;;
27003;SDS011;14546;47.590;19.022;2023-03-01T16:04:12;11.63;;;5.07;;
27003;SDS011;14546;47.590;19.022;2023-03-01T16:06:45;16.45;;;5.45;;
27003;SDS011;14546;47.590;19.022;2023-03-01T16:09:12;8.63;;;4.30;;
27003;SDS011;14546;47.590;19.022;2023-03-01T16:11:38;13.85;;;5.57;;
27003;SDS011;14546;47.590;19.022;2023-03-01T16:14:08;10.07;;;4.97;;
27003;SDS011;14546;47.590;19.022;2023-03-01T16:16:34;10.23;;;4.70;;
27003;SDS011;14546;47.590;19.022;2023-03-01T16:19:01;18.67;;;6.03;;
27003;SDS011;14546;47.590;19.022;2023-03-01T16:21:27;13.43;;;5.53;;
27003;SDS011;14546;47.590;19.022;2023-03-01T16:23:59;13.65;;;6.13;;
27003;SDS011;14546;47.590;19.022;2023-03-01T16:26:25;10.93;;;6.22;;
27003;SDS011;14546;47.590;19.022;2023-03-01T16:28:53;22.83;;;8.98;;
27003;SDS011;14546;47.590;19.022;2023-03-01T16:31:19;20.70;;;8.52;;
27003;SDS011;14546;47.590;19.022;2023-03-01T16:33:45;20.65;;;8.40;;
27003;SDS011;14546;47.590;19.022;2023-03-01T16:36:15;16.70;;;8.50;;